ADDS METAR Data INFO
IDs: Format: Raw Decoded Include TAF

Data at: 0938 UTC 17 Oct 2017

KCCR 170853Z AUTO 00000KT 10SM CLR 13/03 A3008 RMK AO2 SLP170 T01330028 53002
KCCR 170753Z AUTO 17003KT 10SM CLR 14/03 A3007 RMK AO2 SLP168 T01440028 403000094
KCCR 170653Z AUTO 17004KT 10SM CLR 16/03 A3007 RMK AO2 SLP168 T01560028
KCCR 170553Z AUTO 16003KT 10SM CLR 16/04 A3007 RMK AO2 SLP168 T01560039 10300 20156 51009
KCCR 170453Z 00000KT 10SM CLR 17/04 A3006 RMK AO2 SLP166 T01670039
KCCR 170353Z 00000KT 10SM CLR 18/04 A3006 RMK AO2 SLP164 T01780039
KCCR 170253Z 00000KT 10SM CLR 20/05 A3004 RMK AO2 SLP159 T02000050 55000
KCCR 170153Z 00000KT 10SM CLR 21/04 A3003 RMK AO2 SLP157 T02060039
KCCR 170053Z 00000KT 10SM CLR 28/01 A3003 RMK AO2 SLP156 T02830006
KCCR 162353Z 09005KT 10SM CLR 29/M01 A3004 RMK AO2 SLP159 T02941006 10300 20228 56018
KCCR 162253Z 05006KT 10SM CLR 30/M01 A3006 RMK AO2 SLP165 T03001006
KCCR 162153Z 04004KT 10SM CLR 28/M01 A3007 RMK AO2 SLP169 T02831011
KCCR 162053Z 03006KT 10SM CLR 28/M01 A3009 RMK AO2 SLP177 T02781011 58027
KCCR 161953Z VRB03KT 10SM CLR 26/M01 A3013 RMK AO2 SLP189 T02561011
KCCR 161853Z VRB06KT 10SM CLR 25/M01 A3015 RMK AO2 SLP197 T02501011
KCCR 161753Z 05006KT 9SM CLR 23/M01 A3017 RMK AO2 SLP204 T02281006 10228 20094 50004
KCCR 161653Z 00000KT 10SM CLR 20/03 A3018 RMK AO2 SLP206 T02000033
KCCR 161553Z 00000KT 10SM CLR 14/04 A3018 RMK AO2 SLP204 T01390044
KCCR 161453Z 15003KT 10SM CLR 11/04 A3016 RMK AO2 SLP200 T01060044 53010
KCCR 161353Z AUTO 18003KT 10SM CLR 09/04 A3015 RMK AO2 SLP196 T00940039
KCCR 161253Z AUTO 16003KT 10SM CLR 10/04 A3015 RMK AO2 SLP194 T01000044
KCCR 161153Z AUTO 00000KT 10SM CLR 10/04 A3013 RMK AO2 SLP190 T01000044 10150 20100 55001
KCCR 161053Z AUTO 00000KT 10SM CLR 12/04 A3013 RMK AO2 SLP189 T01170044
KCCR 160953Z AUTO 17003KT 10SM CLR 12/05 A3014 RMK AO2 SLP191 T01220050
KCCR 160853Z AUTO 00000KT 10SM CLR 12/05 A3014 RMK AO2 SLP191 T01220050 55001
KCCR 160753Z AUTO 00000KT 10SM CLR 13/05 A3013 RMK AO2 SLP190 T01280050 402780078
KCCR 160653Z AUTO 00000KT 10SM CLR 14/05 A3014 RMK AO2 SLP191 T01390050
KCCR 160553Z AUTO 00000KT 10SM CLR 15/05 A3014 RMK AO2 SLP192 T01500050 10272 20150 53010
KCCR 160453Z 14003KT 10SM CLR 17/04 A3013 RMK AO2 SLP188 T01670044
KCCR 160353Z 14004KT 10SM CLR 18/05 A3012 RMK AO2 SLP185 T01830050
KCCR 160253Z 15003KT 10SM CLR 19/05 A3011 RMK AO2 SLP182 T01940050 53005
KCCR 160153Z 00000KT 10SM CLR 22/04 A3009 RMK AO2 SLP176 T02220039
KCCR 160053Z 06004KT 10SM CLR 26/03 A3009 RMK AO2 SLP174 T02610028
KCCR 152353Z VRB04KT 10SM CLR 27/02 A3009 RMK AO2 SLP177 T02720022 10278 20222 56011
KCCR 152253Z 02007KT 10SM CLR 27/02 A3010 RMK AO2 SLP180 T02720022
KCCR 152153Z 01008KT 10SM CLR 27/01 A3011 RMK AO2 SLP182 T02670011